createdAt,value
2023-10-29T00:00:30.113Z,93955.50
2023-10-29T00:02:58.968Z,93959.13
2023-10-29T00:05:27.078Z,93949.09
2023-10-29T00:07:55.045Z,93922.59
2023-10-29T00:10:23.062Z,93948.69
2023-10-29T00:12:52.205Z,93931.84
2023-10-29T00:15:22.292Z,93934.66
2023-10-29T00:17:50.395Z,93918.59
2023-10-29T00:20:18.431Z,93941.47
2023-10-29T00:22:46.304Z,93920.22
2023-10-29T00:25:14.056Z,93933.66
2023-10-29T00:27:41.916Z,93908.16
2023-10-29T00:30:12.094Z,93893.28
2023-10-29T00:32:40.179Z,93927.03
2023-10-29T00:35:08.645Z,93901.72
2023-10-29T00:37:36.499Z,93893.28
2023-10-29T00:40:05.362Z,93881.66
2023-10-29T00:42:33.369Z,93868.03
2023-10-29T00:45:01.387Z,93867.44
2023-10-29T00:47:30.879Z,93865.25
2023-10-29T00:49:58.717Z,93875.25
2023-10-29T00:52:26.589Z,93863.22
2023-10-29T00:54:54.463Z,93866.41
2023-10-29T00:57:22.592Z,93868.81
2023-10-29T00:59:50.428Z,93868.03
2023-10-29T01:02:18.258Z,93864.03
2023-10-29T01:04:47.638Z,93858.00
2023-10-29T01:07:15.690Z,93858.81
2023-10-29T01:09:45.113Z,93870.03
2023-10-29T01:12:17.213Z,93865.25
2023-10-29T01:14:45.530Z,93845.78
2023-10-29T01:17:13.811Z,93838.97
2023-10-29T01:19:41.544Z,93844.78
2023-10-29T01:22:11.183Z,93844.78
2023-10-29T01:24:39.931Z,93840.56
2023-10-29T01:27:08.997Z,93838.16
2023-10-29T01:29:36.993Z,93834.75
2023-10-29T01:32:05.262Z,93831.94
2023-10-29T01:34:33.309Z,93833.75
2023-10-29T01:37:01.199Z,93837.16
2023-10-29T01:39:30.384Z,93837.16
2023-10-29T01:41:59.293Z,93826.13
2023-10-29T01:44:27.310Z,93822.72
2023-10-29T01:46:55.130Z,93817.91
2023-10-29T01:49:22.996Z,93820.50
2023-10-29T01:51:51.294Z,93814.28
2023-10-29T01:54:19.096Z,93820.31
2023-10-29T01:56:48.218Z,93817.31
2023-10-29T01:59:16.648Z,93822.31
2023-10-29T02:01:44.885Z,93812.09
2023-10-29T02:04:13.090Z,93811.88
2023-10-29T02:06:41.342Z,93805.66
2023-10-29T02:09:10.259Z,93817.09
2023-10-29T02:11:39.193Z,93817.09
2023-10-29T02:14:08.604Z,93825.53
2023-10-29T02:16:36.466Z,93827.94
2023-10-29T02:19:04.732Z,93808.09
2023-10-29T02:21:32.812Z,93827.34
2023-10-29T02:24:02.544Z,93822.31
2023-10-29T02:26:30.584Z,93823.13
2023-10-29T02:28:58.430Z,93815.28
2023-10-29T02:31:26.274Z,93810.50
2023-10-29T02:33:54.615Z,93837.94
2023-10-29T02:36:22.447Z,93835.56
2023-10-29T02:38:50.342Z,93830.31
2023-10-29T02:41:19.552Z,93827.13
2023-10-29T02:43:47.340Z,93821.91
2023-10-29T02:46:15.105Z,93814.72
2023-10-29T02:48:42.999Z,93814.72
2023-10-29T02:51:12.639Z,93807.88
2023-10-29T02:53:40.644Z,93804.25
2023-10-29T02:56:08.541Z,93814.72
2023-10-29T02:58:37.866Z,93815.13
2023-10-29T03:01:06.860Z,93807.09
2023-10-29T03:03:35.078Z,93804.69
2023-10-29T03:06:06.120Z,93803.06
2023-10-29T03:08:34.325Z,93778.22
2023-10-29T03:11:02.218Z,93794.41
2023-10-29T03:13:30.239Z,93803.06
2023-10-29T03:15:59.413Z,93794.41
2023-10-29T03:18:27.471Z,93810.50
2023-10-29T03:20:55.517Z,93792.63
2023-10-29T03:23:25.232Z,93803.06
2023-10-29T03:25:53.231Z,93794.41
2023-10-29T03:28:21.460Z,93801.44
2023-10-29T03:30:49.341Z,93793.03
2023-10-29T03:33:18.644Z,93794.63
2023-10-29T03:35:49.093Z,93798.84
2023-10-29T03:38:17.011Z,93796.22
2023-10-29T03:40:44.896Z,93789.41
2023-10-29T03:43:12.701Z,93791.44
2023-10-29T03:45:40.460Z,93795.66
2023-10-29T03:48:08.266Z,93792.63
2023-10-29T03:50:37.435Z,93804.88
2023-10-29T03:53:05.200Z,93792.22
2023-10-29T03:55:34.194Z,93780.63
2023-10-29T03:58:02.062Z,93766.97
2023-10-29T04:00:29.906Z,93759.94
2023-10-29T04:02:57.905Z,93773.00
2023-10-29T04:05:25.627Z,93778.81
2023-10-29T04:07:54.919Z,93757.34
2023-10-29T04:10:22.747Z,93787.00
2023-10-29T04:12:50.635Z,93780.19
2023-10-29T04:15:18.359Z,93776.19
2023-10-29T04:17:48.293Z,93772.00
2023-10-29T04:20:16.216Z,93762.56
2023-10-29T04:22:44.408Z,93771.41
2023-10-29T04:25:13.714Z,93779.41
2023-10-29T04:27:41.646Z,93779.00
2023-10-29T04:30:10.446Z,93782.00
2023-10-29T04:32:38.404Z,93779.81
2023-10-29T04:35:07.565Z,93777.78
2023-10-29T04:37:35.500Z,93775.19
2023-10-29T04:40:04.377Z,93777.00
2023-10-29T04:42:33.528Z,93773.00
2023-10-29T04:45:01.228Z,93758.56
2023-10-29T04:47:29.183Z,93763.78
2023-10-29T04:49:57.175Z,93769.59
2023-10-29T04:52:25.478Z,93773.00
2023-10-29T04:54:53.286Z,93766.19
2023-10-29T04:57:22.505Z,93763.78
2023-10-29T04:59:53.442Z,93751.75
2023-10-29T05:02:23.132Z,93753.56
2023-10-29T05:04:52.119Z,93765.38
2023-10-29T05:07:20.880Z,93784.22
2023-10-29T05:09:49.766Z,93777.00
2023-10-29T05:12:18.502Z,93771.41
2023-10-29T05:14:47.800Z,93761.75
2023-10-29T05:17:17.621Z,93767.78
2023-10-29T05:19:46.371Z,93751.75
2023-10-29T05:22:14.352Z,93742.53
2023-10-29T05:24:45.212Z,93751.94
2023-10-29T05:27:13.219Z,93750.94
2023-10-29T05:29:41.086Z,93749.34
2023-10-29T05:32:09.047Z,93764.56
2023-10-29T05:34:38.236Z,93743.31
2023-10-29T05:37:06.092Z,93742.53
2023-10-29T05:39:33.939Z,93747.75
2023-10-29T05:42:01.753Z,93748.53
2023-10-29T05:44:29.575Z,93743.31
2023-10-29T05:46:57.352Z,93747.34
2023-10-29T05:49:25.219Z,93761.38
2023-10-29T05:51:54.344Z,93786.63
2023-10-29T05:54:22.200Z,93776.19
2023-10-29T05:56:49.943Z,93779.81
2023-10-29T05:59:17.742Z,93780.63
2023-10-29T06:01:45.600Z,93775.41
2023-10-29T06:04:13.484Z,93784.63
2023-10-29T06:06:41.425Z,93791.66
2023-10-29T06:09:23.303Z,93789.03
2023-10-29T06:11:53.936Z,93789.41
2023-10-29T06:14:24.055Z,93815.13
2023-10-29T06:16:58.564Z,93805.88
2023-10-29T06:19:31.539Z,93792.44
2023-10-29T06:21:59.400Z,93782.22
2023-10-29T06:24:28.859Z,93775.00
2023-10-29T06:26:57.143Z,93760.56
2023-10-29T06:29:24.984Z,93751.34
2023-10-29T06:31:52.818Z,93734.53
2023-10-29T06:34:20.632Z,93665.28
2023-10-29T06:36:48.480Z,93740.34
2023-10-29T06:39:16.828Z,93762.97
2023-10-29T06:41:46.053Z,93782.44
2023-10-29T06:44:13.918Z,93798.25
2023-10-29T06:46:41.832Z,93815.13
2023-10-29T06:49:10.040Z,93831.97
2023-10-29T06:51:37.869Z,93860.44
2023-10-29T06:54:06.282Z,93867.06
2023-10-29T06:56:34.230Z,93870.47
2023-10-29T06:59:03.440Z,93870.47
2023-10-29T07:01:31.165Z,93846.78
2023-10-29T07:03:59.032Z,93850.41
2023-10-29T07:06:26.940Z,93843.59
2023-10-29T07:08:54.827Z,93858.84
2023-10-29T07:11:22.665Z,93856.22
2023-10-29T07:13:50.452Z,93860.84
2023-10-29T07:16:19.596Z,93852.22
2023-10-29T07:18:47.400Z,93833.97
2023-10-29T07:21:15.939Z,93854.84
2023-10-29T07:23:44.010Z,93833.97
2023-10-29T07:26:11.907Z,93835.38
2023-10-29T07:28:39.659Z,93839.00
2023-10-29T07:31:07.459Z,93827.53
2023-10-29T07:33:36.631Z,93842.00
2023-10-29T07:36:04.879Z,93867.25
2023-10-29T07:38:32.800Z,93887.53
2023-10-29T07:41:00.538Z,93899.34
2023-10-29T07:43:28.252Z,93912.78
2023-10-29T07:45:56.060Z,93911.56
2023-10-29T07:48:23.871Z,93958.38
2023-10-29T07:50:53.350Z,93980.03
2023-10-29T07:53:21.495Z,94012.94
2023-10-29T07:55:49.471Z,94042.28
2023-10-29T07:58:17.205Z,94118.78
2023-10-29T08:00:44.946Z,94242.38
2023-10-29T08:03:12.844Z,94372.72
2023-10-29T08:05:40.978Z,94510.81
2023-10-29T08:08:10.227Z,94591.41
2023-10-29T08:10:38.101Z,94679.03
2023-10-29T08:13:07.064Z,94768.97
2023-10-29T08:15:34.959Z,94860.38
2023-10-29T08:18:02.877Z,94918.94
2023-10-29T08:20:30.744Z,95055.88
2023-10-29T08:22:58.579Z,95300.72
2023-10-29T08:25:27.650Z,95568.22
2023-10-29T08:27:55.473Z,95586.88
2023-10-29T08:30:23.590Z,95581.59
2023-10-29T08:32:51.460Z,95479.25
2023-10-29T08:35:19.275Z,95411.84
2023-10-29T08:37:47.237Z,95529.94
2023-10-29T08:40:15.460Z,95674.88
2023-10-29T08:42:45.044Z,96025.31
2023-10-29T08:47:41.560Z,96687.06
2023-10-29T08:50:10.544Z,96933.66
2023-10-29T08:52:38.405Z,97161.72
2023-10-29T08:55:08.055Z,97347.09
2023-10-29T08:57:36.709Z,97718.34
2023-10-29T09:00:07.422Z,97896.63
2023-10-29T09:02:35.340Z,98015.78
2023-10-29T09:05:03.346Z,98078.19
2023-10-29T09:07:31.085Z,98030.56
2023-10-29T09:09:59.774Z,98172.88
2023-10-29T09:12:27.794Z,98505.66
2023-10-29T09:14:56.161Z,98376.00
2023-10-29T09:17:25.426Z,98531.44
2023-10-29T09:19:53.258Z,98593.03
2023-10-29T09:22:21.145Z,98353.38
2023-10-29T09:24:50.030Z,97885.19
2023-10-29T09:27:17.910Z,97340.22
2023-10-29T09:29:45.722Z,97046.41
2023-10-29T09:32:15.101Z,97057.47
2023-10-29T09:34:44.223Z,97089.03
2023-10-29T09:37:11.955Z,96994.94
2023-10-29T09:39:39.755Z,96945.88
2023-10-29T09:42:10.375Z,96968.81
2023-10-29T09:44:41.635Z,96893.63
2023-10-29T09:47:15.371Z,96896.25
2023-10-29T09:49:45.296Z,96814.78
2023-10-29T09:52:15.416Z,96770.31
2023-10-29T09:54:43.264Z,96596.69
2023-10-29T09:57:11.206Z,96465.22
2023-10-29T09:59:39.009Z,96348.28
2023-10-29T10:02:08.214Z,96221.47
2023-10-29T10:04:39.574Z,96167.59
2023-10-29T10:07:09.423Z,96105.78
2023-10-29T10:09:53.604Z,95980.13
2023-10-29T10:12:21.553Z,95896.47
2023-10-29T10:14:50.821Z,95867.63
2023-10-29T10:17:18.747Z,95884.69
2023-10-29T10:19:46.527Z,95862.38
2023-10-29T10:22:35.458Z,95843.69
2023-10-29T10:25:03.229Z,95846.94
2023-10-29T10:27:31.506Z,95879.41
2023-10-29T10:29:59.322Z,95942.38
2023-10-29T10:32:27.174Z,95944.00
2023-10-29T10:34:57.032Z,95994.19
2023-10-29T10:37:26.465Z,96000.06
2023-10-29T10:39:55.291Z,95997.44
2023-10-29T10:42:26.153Z,96033.38
2023-10-29T10:44:57.029Z,96001.72
2023-10-29T10:47:28.972Z,95996.44
2023-10-29T10:49:57.507Z,95993.38
2023-10-29T10:52:30.203Z,96002.53
2023-10-29T10:54:58.138Z,95977.75
2023-10-29T10:57:27.925Z,96021.22
2023-10-29T11:00:00.803Z,96020.59
2023-10-29T11:02:29.196Z,95994.81
2023-10-29T11:04:58.842Z,95908.88
2023-10-29T11:07:28.837Z,95887.56
2023-10-29T11:09:56.960Z,95919.06
2023-10-29T11:12:24.960Z,95967.59
2023-10-29T11:15:13.684Z,96033.84
2023-10-29T11:17:52.167Z,96073.75
2023-10-29T11:20:56.346Z,96129.41
2023-10-29T11:23:27.887Z,96126.94
2023-10-29T11:26:22.303Z,96136.94
2023-10-29T11:28:50.921Z,96102.97
2023-10-29T11:31:20.141Z,96118.84
2023-10-29T11:33:50.095Z,96101.78
2023-10-29T11:36:31.898Z,96056.66
2023-10-29T11:39:32.335Z,96100.16
2023-10-29T11:42:00.979Z,96080.63
2023-10-29T11:44:31.010Z,96046.66
2023-10-29T11:47:06.301Z,96001.31
2023-10-29T11:50:13.715Z,95952.16
2023-10-29T11:52:44.986Z,95875.38
2023-10-29T11:55:14.742Z,95714.84
2023-10-29T11:57:48.323Z,95707.34
2023-10-29T12:00:16.920Z,95567.84
2023-10-29T12:02:48.237Z,95518.00
2023-10-29T12:05:18.069Z,95517.78
2023-10-29T12:07:46.761Z,95473.63
2023-10-29T12:10:16.126Z,95443.84
2023-10-29T12:12:53.774Z,95453.16
2023-10-29T12:15:22.148Z,95441.97
2023-10-29T12:17:50.045Z,95472.63
2023-10-29T12:20:23.018Z,95489.44
2023-10-29T12:22:55.978Z,95508.28
2023-10-29T12:25:25.590Z,95516.78
2023-10-29T12:27:53.744Z,95498.16
2023-10-29T12:30:41.962Z,95467.38
2023-10-29T12:33:24.007Z,95489.25
2023-10-29T12:35:53.298Z,95486.00
2023-10-29T12:38:22.445Z,95509.91
2023-10-29T12:41:10.714Z,95460.50
2023-10-29T12:43:39.874Z,95456.25
2023-10-29T12:46:09.211Z,95463.13
2023-10-29T12:48:38.625Z,95401.72
2023-10-29T12:51:08.088Z,95373.81
2023-10-29T12:53:36.016Z,95365.72
2023-10-29T12:56:04.109Z,95350.34
2023-10-29T12:58:33.213Z,95334.94
2023-10-29T13:01:01.627Z,95302.97
2023-10-29T13:03:30.116Z,95314.31
2023-10-29T13:05:58.839Z,95278.28
2023-10-29T13:08:26.990Z,95280.53
2023-10-29T13:10:55.098Z,95277.47
2023-10-29T13:13:24.660Z,95264.72
2023-10-29T13:15:54.360Z,95271.59
2023-10-29T13:18:22.208Z,95288.59
2023-10-29T13:20:50.417Z,95267.34
2023-10-29T13:23:18.488Z,95249.56
2023-10-29T13:25:47.142Z,95203.63
2023-10-29T13:28:15.412Z,95205.44
2023-10-29T13:30:43.626Z,95218.00
2023-10-29T13:33:12.897Z,95238.25
2023-10-29T13:35:41.241Z,95206.69
2023-10-29T13:38:09.585Z,95195.75
2023-10-29T13:40:39.188Z,95180.34
2023-10-29T13:43:07.408Z,95234.00
2023-10-29T13:45:35.318Z,95212.38
2023-10-29T13:48:05.632Z,95186.66
2023-10-29T13:50:38.778Z,95180.59
2023-10-29T13:53:07.101Z,95167.03
2023-10-29T13:55:35.194Z,95172.69
2023-10-29T13:58:03.709Z,95198.19
2023-10-29T14:00:32.280Z,95161.78
2023-10-29T14:03:01.150Z,95120.56
2023-10-29T14:05:29.448Z,95129.84
2023-10-29T14:08:00.440Z,95064.75
2023-10-29T14:10:28.224Z,95064.38
2023-10-29T14:12:56.104Z,95073.66
2023-10-29T14:15:23.899Z,95061.94
2023-10-29T14:17:51.755Z,95030.44
2023-10-29T14:20:19.561Z,95024.78
2023-10-29T14:22:47.922Z,95023.75
2023-10-29T14:25:18.914Z,95028.00
2023-10-29T14:27:46.722Z,95018.91
2023-10-29T14:30:15.330Z,95007.41
2023-10-29T14:32:44.695Z,94994.09
2023-10-29T14:35:12.972Z,94980.31
2023-10-29T14:37:40.832Z,94962.94
2023-10-29T14:40:09.924Z,94965.38
2023-10-29T14:42:39.209Z,94972.63
2023-10-29T14:45:07.924Z,94968.59
2023-10-29T14:47:35.770Z,94951.66
2023-10-29T14:50:03.886Z,94957.69
2023-10-29T14:52:33.471Z,94946.81
2023-10-29T14:55:01.297Z,94894.13
2023-10-29T14:57:30.145Z,94895.94
2023-10-29T14:59:59.695Z,94877.75
2023-10-29T15:02:28.268Z,94888.47
2023-10-29T15:04:56.571Z,94855.16
2023-10-29T15:07:24.431Z,94862.81
2023-10-29T15:09:52.452Z,94865.22
2023-10-29T15:12:20.684Z,94851.91
2023-10-29T15:14:48.951Z,94838.59
2023-10-29T15:17:20.791Z,94847.69
2023-10-29T15:19:52.527Z,94830.75
2023-10-29T15:22:20.440Z,94813.78
2023-10-29T15:24:49.045Z,94834.16
2023-10-29T15:27:17.386Z,94847.69
2023-10-29T15:29:47.489Z,94864.44
2023-10-29T15:32:15.234Z,94834.16
2023-10-29T15:34:44.535Z,94820.03
2023-10-29T15:37:13.116Z,94822.47
2023-10-29T15:39:41.651Z,94809.56
2023-10-29T15:42:09.897Z,94807.94
2023-10-29T15:44:37.729Z,94783.53
2023-10-29T15:47:06.104Z,94780.72
2023-10-29T15:49:33.830Z,94792.63
2023-10-29T15:52:03.130Z,94792.00
2023-10-29T15:54:32.428Z,94811.38
2023-10-29T15:57:00.214Z,94795.84
2023-10-29T15:59:27.947Z,94789.38
2023-10-29T16:01:57.499Z,94792.63
2023-10-29T16:04:26.867Z,94807.13
2023-10-29T16:06:54.911Z,94760.31
2023-10-29T16:09:24.372Z,94807.94
2023-10-29T16:11:52.541Z,94803.09
2023-10-29T16:14:21.341Z,94776.47
2023-10-29T16:16:49.089Z,94775.88
2023-10-29T16:19:17.238Z,94763.94
2023-10-29T16:21:45.398Z,94780.91
2023-10-29T16:24:13.592Z,94761.97
2023-10-29T16:26:42.960Z,94783.53
2023-10-29T16:29:13.087Z,94766.00
2023-10-29T16:31:41.037Z,94719.59
2023-10-29T16:34:09.282Z,94779.91
2023-10-29T16:36:37.219Z,94774.06
2023-10-29T16:39:05.255Z,94759.50
2023-10-29T16:41:33.087Z,94753.88
2023-10-29T16:44:02.655Z,94736.94
2023-10-29T16:46:31.125Z,94731.69
2023-10-29T16:49:01.026Z,94708.31
2023-10-29T16:51:30.268Z,94720.81
2023-10-29T16:53:58.200Z,94720.81
2023-10-29T16:56:26.052Z,94674.22
2023-10-29T16:58:53.841Z,94684.50
2023-10-29T17:01:23.574Z,94700.63
2023-10-29T17:03:52.271Z,94672.03
2023-10-29T17:06:20.134Z,94660.72
2023-10-29T17:08:48.375Z,94637.13
2023-10-29T17:11:16.123Z,94645.78
2023-10-29T17:13:43.868Z,94648.22
2023-10-29T17:16:11.678Z,94656.28
2023-10-29T17:18:40.866Z,94688.75
2023-10-29T17:21:15.394Z,94690.34
2023-10-29T17:23:43.527Z,94711.53
2023-10-29T17:26:14.962Z,94679.69
2023-10-29T17:28:42.723Z,94672.81
2023-10-29T17:31:12.922Z,94655.50
2023-10-29T17:33:42.528Z,94681.28
2023-10-29T17:36:11.549Z,94674.44
2023-10-29T17:38:40.142Z,94671.00
2023-10-29T17:41:15.688Z,94652.28
2023-10-29T17:43:43.486Z,94649.00
2023-10-29T17:46:15.073Z,94632.09
2023-10-29T17:48:45.037Z,94632.09
2023-10-29T17:51:13.195Z,94655.88
2023-10-29T17:53:42.434Z,94657.31
2023-10-29T17:56:10.292Z,94653.03
2023-10-29T17:58:38.226Z,94698.63
2023-10-29T18:01:06.169Z,94689.34
2023-10-29T18:03:34.206Z,94709.72
2023-10-29T18:06:14.729Z,94724.03
2023-10-29T18:08:44.085Z,94713.13
2023-10-29T18:11:12.645Z,94689.34
2023-10-29T18:13:40.807Z,94693.59
2023-10-29T18:16:09.732Z,94694.59
2023-10-29T18:18:37.748Z,94669.19
2023-10-29T18:21:06.077Z,94676.84
2023-10-29T18:23:35.173Z,94704.66
2023-10-29T18:26:03.014Z,94713.13
2023-10-29T18:28:31.868Z,94719.78
2023-10-29T18:30:59.689Z,94708.50
2023-10-29T18:33:32.555Z,94740.97
2023-10-29T18:36:06.811Z,94746.41
2023-10-29T18:38:36.080Z,94769.63
2023-10-29T18:41:04.101Z,94746.59
2023-10-29T18:43:31.812Z,94783.13
2023-10-29T18:45:59.677Z,94755.91
2023-10-29T18:48:27.635Z,94739.34
2023-10-29T18:51:02.976Z,94717.38
2023-10-29T18:53:30.778Z,94703.06
2023-10-29T18:55:59.890Z,94728.25
2023-10-29T18:58:27.986Z,94741.75
2023-10-29T19:00:55.760Z,94768.00
2023-10-29T19:03:24.190Z,94736.31
2023-10-29T19:05:52.162Z,94755.47
2023-10-29T19:08:19.937Z,94777.28
2023-10-29T19:10:49.257Z,94737.53
2023-10-29T19:13:18.482Z,94777.28
2023-10-29T19:15:46.399Z,94808.75
2023-10-29T19:18:14.514Z,94787.38
2023-10-29T19:20:43.063Z,94791.00
2023-10-29T19:23:10.923Z,94776.88
2023-10-29T19:25:38.676Z,94753.88
2023-10-29T19:28:06.400Z,94772.44
2023-10-29T19:30:35.608Z,94743.56
2023-10-29T19:33:04.110Z,94762.13
2023-10-29T19:35:33.042Z,94749.44
2023-10-29T19:38:01.855Z,94741.75
2023-10-29T19:40:29.837Z,94758.69
2023-10-29T19:42:57.745Z,94757.72
2023-10-29T19:45:26.215Z,94762.97
2023-10-29T19:47:55.433Z,94767.00
2023-10-29T19:50:23.315Z,94804.31
2023-10-29T19:52:51.226Z,94803.50
2023-10-29T19:55:19.628Z,94803.50
2023-10-29T19:57:49.222Z,94805.72
2023-10-29T20:00:20.095Z,94832.97
2023-10-29T20:02:48.159Z,94824.47
2023-10-29T20:05:17.498Z,94795.63
2023-10-29T20:07:45.450Z,94833.56
2023-10-29T20:10:14.364Z,94831.34
2023-10-29T20:12:42.429Z,94849.91
2023-10-29T20:15:11.045Z,94856.75
2023-10-29T20:17:38.845Z,94855.97
2023-10-29T20:20:08.060Z,94835.56
2023-10-29T20:22:37.301Z,94832.97
2023-10-29T20:25:06.000Z,94860.00
2023-10-29T20:27:34.021Z,94850.72
2023-10-29T20:30:02.064Z,94871.94
2023-10-29T20:32:29.883Z,94889.69
2023-10-29T20:34:57.691Z,94890.69
2023-10-29T20:37:25.914Z,94878.59
2023-10-29T20:39:55.192Z,94888.69
2023-10-29T20:42:23.003Z,94878.59
2023-10-29T20:44:50.894Z,94880.19
2023-10-29T20:47:19.104Z,94885.03
2023-10-29T20:49:47.173Z,94891.91
2023-10-29T20:52:17.518Z,94892.72
2023-10-29T20:54:45.426Z,94906.44
2023-10-29T20:57:14.623Z,94902.00
2023-10-29T20:59:42.505Z,94892.09
2023-10-29T21:02:10.276Z,94887.06
2023-10-29T21:04:38.027Z,94890.28
2023-10-29T21:07:05.852Z,94898.78
2023-10-29T21:09:33.661Z,94919.34
2023-10-29T21:12:01.609Z,94920.16
2023-10-29T21:14:30.792Z,94918.16
2023-10-29T21:16:58.563Z,94925.22
2023-10-29T21:19:30.237Z,94928.44
2023-10-29T21:21:58.520Z,94925.81
2023-10-29T21:24:26.686Z,94934.91
2023-10-29T21:26:56.300Z,94931.06
2023-10-29T21:29:24.512Z,94923.59
2023-10-29T21:31:53.644Z,94928.63
2023-10-29T21:34:21.814Z,94941.16
2023-10-29T21:36:49.699Z,94931.88
2023-10-29T21:39:17.495Z,94929.25
2023-10-29T21:41:46.921Z,94930.25
2023-10-29T21:44:14.776Z,94909.25
2023-10-29T21:46:42.580Z,94920.97
2023-10-29T21:49:11.840Z,94916.53
2023-10-29T21:51:39.548Z,94910.66
2023-10-29T21:54:07.669Z,94897.97
2023-10-29T21:56:35.551Z,94887.25
2023-10-29T21:59:03.442Z,94897.16
2023-10-29T22:01:31.361Z,94876.97
2023-10-29T22:03:59.264Z,94871.09
2023-10-29T22:06:28.794Z,94876.97
2023-10-29T22:08:56.517Z,94874.56
2023-10-29T22:11:24.331Z,94888.06
2023-10-29T22:13:52.089Z,94905.63
2023-10-29T22:16:20.428Z,94868.47
2023-10-29T22:18:48.274Z,94902.41
2023-10-29T22:21:16.159Z,94893.13
2023-10-29T22:23:45.234Z,94902.41
2023-10-29T22:26:12.989Z,94906.44
2023-10-29T22:28:40.778Z,94883.78
2023-10-29T22:31:08.703Z,94914.91
2023-10-29T22:33:36.720Z,94951.66
2023-10-29T22:36:06.273Z,94946.41
2023-10-29T22:38:34.479Z,94937.53
2023-10-29T22:41:04.812Z,94914.09
2023-10-29T22:43:32.895Z,94922.59
2023-10-29T22:46:01.005Z,94908.25
2023-10-29T22:48:29.309Z,94918.34
2023-10-29T22:50:57.564Z,94917.75
2023-10-29T22:53:25.420Z,94926.81
2023-10-29T22:55:53.173Z,94921.78
2023-10-29T22:58:22.376Z,94931.06
2023-10-29T23:00:50.295Z,94948.00
2023-10-29T23:03:18.341Z,94949.84
2023-10-29T23:05:46.504Z,94927.44
2023-10-29T23:08:14.362Z,94914.09
2023-10-29T23:10:42.125Z,94894.31
2023-10-29T23:13:09.993Z,94914.09
2023-10-29T23:15:39.266Z,94913.28
2023-10-29T23:18:07.173Z,94911.47
2023-10-29T23:20:35.114Z,94916.72
2023-10-29T23:23:04.471Z,94894.53
2023-10-29T23:25:32.229Z,94907.03
2023-10-29T23:27:59.972Z,94919.16
2023-10-29T23:30:27.960Z,94914.09
2023-10-29T23:32:57.183Z,94922.59
2023-10-29T23:35:24.943Z,94909.88
2023-10-29T23:37:54.386Z,94907.25
2023-10-29T23:40:25.014Z,94916.94
2023-10-29T23:42:52.874Z,94897.94
2023-10-29T23:45:20.694Z,94908.06
2023-10-29T23:47:48.664Z,94915.72
2023-10-29T23:50:17.862Z,94904.00
2023-10-29T23:52:46.023Z,94914.09
2023-10-29T23:55:16.631Z,94900.78
2023-10-29T23:57:44.813Z,94897.16
